sensor_id;sensor_type;location;lat;lon;timestamp;temperature;humidity
72277;SHT30;61204;49.980;8.358;2022-12-15T00:01:18;-4.13;96.38
72277;SHT30;61204;49.980;8.358;2022-12-15T00:04:03;-4.14;96.09
72277;SHT30;61204;49.980;8.358;2022-12-15T00:06:47;-4.10;96.12
72277;SHT30;61204;49.980;8.358;2022-12-15T00:09:31;-4.09;96.16
72277;SHT30;61204;49.980;8.358;2022-12-15T00:12:15;-4.06;95.92
72277;SHT30;61204;49.980;8.358;2022-12-15T00:14:59;-4.02;95.76
72277;SHT30;61204;49.980;8.358;2022-12-15T00:17:44;-3.96;95.58
72277;SHT30;61204;49.980;8.358;2022-12-15T00:20:28;-3.96;95.45
72277;SHT30;61204;49.980;8.358;2022-12-15T00:23:12;-4.00;95.39
72277;SHT30;61204;49.980;8.358;2022-12-15T00:25:57;-3.99;95.19
72277;SHT30;61204;49.980;8.358;2022-12-15T00:28:41;-3.98;95.15
72277;SHT30;61204;49.980;8.358;2022-12-15T00:31:26;-4.02;94.90
72277;SHT30;61204;49.980;8.358;2022-12-15T00:34:10;-4.00;94.49
72277;SHT30;61204;49.980;8.358;2022-12-15T00:36:55;-4.05;94.38
72277;SHT30;61204;49.980;8.358;2022-12-15T00:39:40;-4.05;94.40
72277;SHT30;61204;49.980;8.358;2022-12-15T00:42:07;-4.07;94.39
72277;SHT30;61204;49.980;8.358;2022-12-15T00:44:34;-4.07;93.86
72277;SHT30;61204;49.980;8.358;2022-12-15T00:47:01;-4.07;93.22
72277;SHT30;61204;49.980;8.358;2022-12-15T00:49:30;-4.07;92.70
72277;SHT30;61204;49.980;8.358;2022-12-15T00:52:16;-4.10;92.02
72277;SHT30;61204;49.980;8.358;2022-12-15T00:55:03;-4.13;91.78
72277;SHT30;61204;49.980;8.358;2022-12-15T00:57:47;-4.17;91.84
72277;SHT30;61204;49.980;8.358;2022-12-15T01:00:32;-4.24;91.93
72277;SHT30;61204;49.980;8.358;2022-12-15T01:03:21;-4.27;92.06
72277;SHT30;61204;49.980;8.358;2022-12-15T01:06:11;-4.30;92.01
72277;SHT30;61204;49.980;8.358;2022-12-15T01:08:57;-4.33;92.01
72277;SHT30;61204;49.980;8.358;2022-12-15T01:11:43;-4.35;92.06
72277;SHT30;61204;49.980;8.358;2022-12-15T01:14:29;-4.34;91.96
72277;SHT30;61204;49.980;8.358;2022-12-15T01:17:15;-4.37;91.73
72277;SHT30;61204;49.980;8.358;2022-12-15T01:20:00;-4.40;91.70
72277;SHT30;61204;49.980;8.358;2022-12-15T01:22:50;-4.38;91.94
72277;SHT30;61204;49.980;8.358;2022-12-15T01:25:21;-4.34;92.12
72277;SHT30;61204;49.980;8.358;2022-12-15T01:27:48;-4.35;92.01
72277;SHT30;61204;49.980;8.358;2022-12-15T01:30:19;-4.37;92.28
72277;SHT30;61204;49.980;8.358;2022-12-15T01:32:47;-4.37;92.35
72277;SHT30;61204;49.980;8.358;2022-12-15T01:35:13;-4.37;92.31
72277;SHT30;61204;49.980;8.358;2022-12-15T01:37:39;-4.35;92.34
72277;SHT30;61204;49.980;8.358;2022-12-15T01:40:06;-4.41;92.28
72277;SHT30;61204;49.980;8.358;2022-12-15T01:42:52;-4.48;91.96
72277;SHT30;61204;49.980;8.358;2022-12-15T01:48:01;-4.52;91.74
72277;SHT30;61204;49.980;8.358;2022-12-15T01:50:36;-4.57;91.90
72277;SHT30;61204;49.980;8.358;2022-12-15T01:53:07;-4.52;92.01
72277;SHT30;61204;49.980;8.358;2022-12-15T01:55:35;-4.47;91.92
72277;SHT30;61204;49.980;8.358;2022-12-15T01:58:07;-4.51;92.05
72277;SHT30;61204;49.980;8.358;2022-12-15T02:00:35;-4.54;92.12
72277;SHT30;61204;49.980;8.358;2022-12-15T02:03:03;-4.60;92.21
72277;SHT30;61204;49.980;8.358;2022-12-15T02:05:31;-4.68;92.28
72277;SHT30;61204;49.980;8.358;2022-12-15T02:08:00;-4.72;92.43
72277;SHT30;61204;49.980;8.358;2022-12-15T02:11:21;-4.76;92.82
72277;SHT30;61204;49.980;8.358;2022-12-15T02:14:08;-4.85;92.81
72277;SHT30;61204;49.980;8.358;2022-12-15T02:17:12;-4.88;92.98
72277;SHT30;61204;49.980;8.358;2022-12-15T02:20:25;-4.95;93.20
72277;SHT30;61204;49.980;8.358;2022-12-15T02:26:53;-5.03;93.56
72277;SHT30;61204;49.980;8.358;2022-12-15T02:30:12;-4.99;94.43
72277;SHT30;61204;49.980;8.358;2022-12-15T02:33:19;-4.96;94.73
72277;SHT30;61204;49.980;8.358;2022-12-15T02:36:10;-4.99;94.59
72277;SHT30;61204;49.980;8.358;2022-12-15T02:38:42;-5.00;94.81
72277;SHT30;61204;49.980;8.358;2022-12-15T02:41:47;-4.99;94.43
72277;SHT30;61204;49.980;8.358;2022-12-15T02:44:33;-5.07;94.29
72277;SHT30;61204;49.980;8.358;2022-12-15T02:47:38;-5.10;94.33
72277;SHT30;61204;49.980;8.358;2022-12-15T02:50:25;-5.21;93.81
72277;SHT30;61204;49.980;8.358;2022-12-15T02:53:12;-5.30;93.96
72277;SHT30;61204;49.980;8.358;2022-12-15T02:56:15;-5.41;93.95
72277;SHT30;61204;49.980;8.358;2022-12-15T02:59:13;-5.50;94.04
72277;SHT30;61204;49.980;8.358;2022-12-15T03:02:02;-5.52;94.16
72277;SHT30;61204;49.980;8.358;2022-12-15T03:04:31;-5.56;94.46
72277;SHT30;61204;49.980;8.358;2022-12-15T03:07:03;-5.54;94.59
72277;SHT30;61204;49.980;8.358;2022-12-15T03:09:32;-5.48;94.61
72277;SHT30;61204;49.980;8.358;2022-12-15T03:11:58;-5.45;94.64
72277;SHT30;61204;49.980;8.358;2022-12-15T03:14:25;-5.47;94.23
72277;SHT30;61204;49.980;8.358;2022-12-15T03:16:52;-5.37;94.08
72277;SHT30;61204;49.980;8.358;2022-12-15T03:19:19;-5.37;94.04
72277;SHT30;61204;49.980;8.358;2022-12-15T03:21:45;-5.38;93.91
72277;SHT30;61204;49.980;8.358;2022-12-15T03:24:10;-5.37;93.79
72277;SHT30;61204;49.980;8.358;2022-12-15T03:26:36;-5.41;93.71
72277;SHT30;61204;49.980;8.358;2022-12-15T03:29:02;-5.42;93.50
72277;SHT30;61204;49.980;8.358;2022-12-15T03:31:28;-5.48;93.65
72277;SHT30;61204;49.980;8.358;2022-12-15T03:33:54;-5.51;93.52
72277;SHT30;61204;49.980;8.358;2022-12-15T03:36:20;-5.54;93.38
72277;SHT30;61204;49.980;8.358;2022-12-15T03:38:49;-5.52;93.84
72277;SHT30;61204;49.980;8.358;2022-12-15T03:41:15;-5.56;93.58
72277;SHT30;61204;49.980;8.358;2022-12-15T03:43:42;-5.59;93.70
72277;SHT30;61204;49.980;8.358;2022-12-15T03:46:08;-5.54;93.70
72277;SHT30;61204;49.980;8.358;2022-12-15T03:48:33;-5.50;93.67
72277;SHT30;61204;49.980;8.358;2022-12-15T03:50:59;-5.44;93.73
72277;SHT30;61204;49.980;8.358;2022-12-15T03:53:25;-5.41;93.86
72277;SHT30;61204;49.980;8.358;2022-12-15T03:55:50;-5.37;93.47
72277;SHT30;61204;49.980;8.358;2022-12-15T03:58:16;-5.35;93.28
72277;SHT30;61204;49.980;8.358;2022-12-15T04:00:41;-5.41;93.04
72277;SHT30;61204;49.980;8.358;2022-12-15T04:03:09;-5.41;93.42
72277;SHT30;61204;49.980;8.358;2022-12-15T04:05:36;-5.51;93.63
72277;SHT30;61204;49.980;8.358;2022-12-15T04:08:02;-5.55;93.68
72277;SHT30;61204;49.980;8.358;2022-12-15T04:10:31;-5.63;93.85
72277;SHT30;61204;49.980;8.358;2022-12-15T04:13:05;-5.63;94.48
72277;SHT30;61204;49.980;8.358;2022-12-15T04:15:34;-5.61;94.60
72277;SHT30;61204;49.980;8.358;2022-12-15T04:18:03;-5.61;94.60
72277;SHT30;61204;49.980;8.358;2022-12-15T04:20:31;-5.66;94.53
72277;SHT30;61204;49.980;8.358;2022-12-15T04:22:58;-5.72;94.57
72277;SHT30;61204;49.980;8.358;2022-12-15T04:25:25;-5.75;94.76
72277;SHT30;61204;49.980;8.358;2022-12-15T04:28:11;-5.71;95.40
72277;SHT30;61204;49.980;8.358;2022-12-15T04:31:10;-5.65;95.41
72277;SHT30;61204;49.980;8.358;2022-12-15T04:34:01;-5.71;95.21
72277;SHT30;61204;49.980;8.358;2022-12-15T04:36:51;-5.78;95.19
72277;SHT30;61204;49.980;8.358;2022-12-15T04:39:40;-5.76;95.24
72277;SHT30;61204;49.980;8.358;2022-12-15T04:42:29;-5.78;95.46
72277;SHT30;61204;49.980;8.358;2022-12-15T04:45:18;-5.73;95.72
72277;SHT30;61204;49.980;8.358;2022-12-15T04:48:05;-5.73;95.55
72277;SHT30;61204;49.980;8.358;2022-12-15T04:50:49;-5.78;95.47
72277;SHT30;61204;49.980;8.358;2022-12-15T04:53:34;-5.76;95.66
72277;SHT30;61204;49.980;8.358;2022-12-15T04:56:17;-5.63;95.94
72277;SHT30;61204;49.980;8.358;2022-12-15T04:59:03;-5.55;95.58
72277;SHT30;61204;49.980;8.358;2022-12-15T05:01:47;-5.59;95.35
72277;SHT30;61204;49.980;8.358;2022-12-15T05:04:32;-5.65;95.19
72277;SHT30;61204;49.980;8.358;2022-12-15T05:07:17;-5.61;95.42
72277;SHT30;61204;49.980;8.358;2022-12-15T05:10:02;-5.61;95.33
72277;SHT30;61204;49.980;8.358;2022-12-15T05:12:47;-5.63;95.07
72277;SHT30;61204;49.980;8.358;2022-12-15T05:15:32;-5.68;94.98
72277;SHT30;61204;49.980;8.358;2022-12-15T05:18:17;-5.69;94.86
72277;SHT30;61204;49.980;8.358;2022-12-15T05:21:02;-5.80;94.70
72277;SHT30;61204;49.980;8.358;2022-12-15T05:23:47;-5.87;94.64
72277;SHT30;61204;49.980;8.358;2022-12-15T05:26:31;-5.91;94.96
72277;SHT30;61204;49.980;8.358;2022-12-15T05:29:16;-5.91;95.17
72277;SHT30;61204;49.980;8.358;2022-12-15T05:32:00;-5.86;95.20
72277;SHT30;61204;49.980;8.358;2022-12-15T05:34:30;-5.82;95.02
72277;SHT30;61204;49.980;8.358;2022-12-15T05:36:59;-5.75;94.92
72277;SHT30;61204;49.980;8.358;2022-12-15T05:39:26;-5.71;94.68
72277;SHT30;61204;49.980;8.358;2022-12-15T05:41:56;-5.68;94.46
72277;SHT30;61204;49.980;8.358;2022-12-15T05:44:24;-5.75;94.35
72277;SHT30;61204;49.980;8.358;2022-12-15T05:46:50;-5.85;94.45
72277;SHT30;61204;49.980;8.358;2022-12-15T05:49:17;-5.90;94.62
72277;SHT30;61204;49.980;8.358;2022-12-15T05:51:45;-5.89;94.98
72277;SHT30;61204;49.980;8.358;2022-12-15T05:54:16;-5.94;94.88
72277;SHT30;61204;49.980;8.358;2022-12-15T05:56:43;-5.93;95.21
72277;SHT30;61204;49.980;8.358;2022-12-15T05:59:10;-5.94;95.50
72277;SHT30;61204;49.980;8.358;2022-12-15T06:01:36;-6.01;95.14
72277;SHT30;61204;49.980;8.358;2022-12-15T06:04:03;-6.10;95.22
72277;SHT30;61204;49.980;8.358;2022-12-15T06:06:29;-6.09;95.68
72277;SHT30;61204;49.980;8.358;2022-12-15T06:08:55;-6.11;95.57
72277;SHT30;61204;49.980;8.358;2022-12-15T06:11:21;-6.14;95.83
72277;SHT30;61204;49.980;8.358;2022-12-15T06:13:47;-6.18;95.67
72277;SHT30;61204;49.980;8.358;2022-12-15T06:16:19;-6.15;95.82
72277;SHT30;61204;49.980;8.358;2022-12-15T06:18:51;-6.07;95.98
72277;SHT30;61204;49.980;8.358;2022-12-15T06:21:22;-6.06;95.73
72277;SHT30;61204;49.980;8.358;2022-12-15T06:23:55;-6.06;95.71
72277;SHT30;61204;49.980;8.358;2022-12-15T06:26:28;-6.06;95.48
72277;SHT30;61204;49.980;8.358;2022-12-15T06:29:00;-6.09;95.69
72277;SHT30;61204;49.980;8.358;2022-12-15T06:31:31;-6.14;95.53
72277;SHT30;61204;49.980;8.358;2022-12-15T06:33:58;-6.14;95.80
72277;SHT30;61204;49.980;8.358;2022-12-15T06:36:25;-6.20;95.80
72277;SHT30;61204;49.980;8.358;2022-12-15T06:38:51;-6.21;96.10
72277;SHT30;61204;49.980;8.358;2022-12-15T06:41:19;-6.20;96.19
72277;SHT30;61204;49.980;8.358;2022-12-15T06:43:51;-6.22;96.11
72277;SHT30;61204;49.980;8.358;2022-12-15T06:46:18;-6.25;96.22
72277;SHT30;61204;49.980;8.358;2022-12-15T06:48:45;-6.13;96.66
72277;SHT30;61204;49.980;8.358;2022-12-15T06:51:13;-6.03;96.80
72277;SHT30;61204;49.980;8.358;2022-12-15T06:53:40;-5.97;96.76
72277;SHT30;61204;49.980;8.358;2022-12-15T06:56:20;-5.94;96.66
72277;SHT30;61204;49.980;8.358;2022-12-15T06:58:48;-5.83;97.02
72277;SHT30;61204;49.980;8.358;2022-12-15T07:01:16;-5.69;97.14
72277;SHT30;61204;49.980;8.358;2022-12-15T07:03:42;-5.65;97.10
72277;SHT30;61204;49.980;8.358;2022-12-15T07:06:11;-5.42;97.70
72277;SHT30;61204;49.980;8.358;2022-12-15T07:08:38;-5.32;97.54
72277;SHT30;61204;49.980;8.358;2022-12-15T07:11:11;-5.31;97.43
72277;SHT30;61204;49.980;8.358;2022-12-15T07:13:38;-5.20;97.55
72277;SHT30;61204;49.980;8.358;2022-12-15T07:16:06;-5.20;97.59
72277;SHT30;61204;49.980;8.358;2022-12-15T07:18:32;-5.17;97.53
72277;SHT30;61204;49.980;8.358;2022-12-15T07:21:05;-5.09;97.70
72277;SHT30;61204;49.980;8.358;2022-12-15T07:23:33;-5.07;97.90
72277;SHT30;61204;49.980;8.358;2022-12-15T07:26:07;-5.04;97.88
72277;SHT30;61204;49.980;8.358;2022-12-15T07:28:36;-5.01;97.72
72277;SHT30;61204;49.980;8.358;2022-12-15T07:31:05;-5.06;97.60
72277;SHT30;61204;49.980;8.358;2022-12-15T07:33:33;-5.04;97.61
72277;SHT30;61204;49.980;8.358;2022-12-15T07:36:02;-4.96;97.39
72277;SHT30;61204;49.980;8.358;2022-12-15T07:38:28;-4.96;97.18
72277;SHT30;61204;49.980;8.358;2022-12-15T07:41:03;-4.92;97.04
72277;SHT30;61204;49.980;8.358;2022-12-15T07:43:29;-4.88;96.98
72277;SHT30;61204;49.980;8.358;2022-12-15T07:45:56;-4.85;96.94
72277;SHT30;61204;49.980;8.358;2022-12-15T07:48:21;-4.79;96.87
72277;SHT30;61204;49.980;8.358;2022-12-15T07:50:48;-4.78;96.65
72277;SHT30;61204;49.980;8.358;2022-12-15T07:53:14;-4.73;96.56
72277;SHT30;61204;49.980;8.358;2022-12-15T07:55:40;-4.69;96.52
72277;SHT30;61204;49.980;8.358;2022-12-15T07:58:05;-4.65;96.44
72277;SHT30;61204;49.980;8.358;2022-12-15T08:00:31;-4.66;96.37
72277;SHT30;61204;49.980;8.358;2022-12-15T08:02:56;-4.57;96.49
72277;SHT30;61204;49.980;8.358;2022-12-15T08:05:26;-4.55;96.42
72277;SHT30;61204;49.980;8.358;2022-12-15T08:07:52;-4.54;96.37
72277;SHT30;61204;49.980;8.358;2022-12-15T08:10:18;-4.54;96.20
72277;SHT30;61204;49.980;8.358;2022-12-15T08:12:43;-4.50;96.21
72277;SHT30;61204;49.980;8.358;2022-12-15T08:15:09;-4.50;96.17
72277;SHT30;61204;49.980;8.358;2022-12-15T08:17:35;-4.47;96.20
72277;SHT30;61204;49.980;8.358;2022-12-15T08:20:01;-4.45;96.28
72277;SHT30;61204;49.980;8.358;2022-12-15T08:22:28;-4.37;96.27
72277;SHT30;61204;49.980;8.358;2022-12-15T08:24:53;-4.33;96.29
72277;SHT30;61204;49.980;8.358;2022-12-15T08:27:19;-4.21;96.11
72277;SHT30;61204;49.980;8.358;2022-12-15T08:29:47;-4.13;95.80
72277;SHT30;61204;49.980;8.358;2022-12-15T08:32:12;-4.11;95.64
72277;SHT30;61204;49.980;8.358;2022-12-15T08:34:38;-4.07;95.71
72277;SHT30;61204;49.980;8.358;2022-12-15T08:37:07;-4.00;95.66
72277;SHT30;61204;49.980;8.358;2022-12-15T08:39:32;-4.02;95.53
72277;SHT30;61204;49.980;8.358;2022-12-15T08:41:58;-3.98;95.58
72277;SHT30;61204;49.980;8.358;2022-12-15T08:44:24;-3.89;95.46
72277;SHT30;61204;49.980;8.358;2022-12-15T08:46:50;-3.85;95.52
72277;SHT30;61204;49.980;8.358;2022-12-15T08:49:16;-3.81;95.42
72277;SHT30;61204;49.980;8.358;2022-12-15T08:51:41;-3.83;95.26
72277;SHT30;61204;49.980;8.358;2022-12-15T08:54:07;-3.82;95.24
72277;SHT30;61204;49.980;8.358;2022-12-15T08:56:34;-3.71;95.25
72277;SHT30;61204;49.980;8.358;2022-12-15T08:59:01;-3.67;94.94
72277;SHT30;61204;49.980;8.358;2022-12-15T09:01:30;-3.62;94.95
72277;SHT30;61204;49.980;8.358;2022-12-15T09:03:57;-3.64;94.79
72277;SHT30;61204;49.980;8.358;2022-12-15T09:06:30;-3.62;94.76
72277;SHT30;61204;49.980;8.358;2022-12-15T09:09:02;-3.51;94.78
72277;SHT30;61204;49.980;8.358;2022-12-15T09:11:30;-3.44;94.58
72277;SHT30;61204;49.980;8.358;2022-12-15T09:13:56;-3.47;94.52
72277;SHT30;61204;49.980;8.358;2022-12-15T09:16:23;-3.46;94.61
72277;SHT30;61204;49.980;8.358;2022-12-15T09:18:54;-3.42;94.73
72277;SHT30;61204;49.980;8.358;2022-12-15T09:21:25;-3.27;94.59
72277;SHT30;61204;49.980;8.358;2022-12-15T09:23:56;-3.27;93.89
72277;SHT30;61204;49.980;8.358;2022-12-15T09:26:25;-3.23;93.77
72277;SHT30;61204;49.980;8.358;2022-12-15T09:28:56;-3.09;93.19
72277;SHT30;61204;49.980;8.358;2022-12-15T09:31:26;-3.03;93.27
72277;SHT30;61204;49.980;8.358;2022-12-15T09:33:57;-2.95;93.21
72277;SHT30;61204;49.980;8.358;2022-12-15T09:36:27;-2.88;93.07
72277;SHT30;61204;49.980;8.358;2022-12-15T09:38:54;-2.81;92.88
72277;SHT30;61204;49.980;8.358;2022-12-15T09:41:26;-2.81;92.42
72277;SHT30;61204;49.980;8.358;2022-12-15T09:44:14;-2.89;92.16
72277;SHT30;61204;49.980;8.358;2022-12-15T09:47:44;-2.89;92.28
72277;SHT30;61204;49.980;8.358;2022-12-15T09:50:26;-2.81;91.89
72277;SHT30;61204;49.980;8.358;2022-12-15T09:52:59;-2.65;91.76
72277;SHT30;61204;49.980;8.358;2022-12-15T09:55:31;-2.68;91.55
72277;SHT30;61204;49.980;8.358;2022-12-15T09:58:32;-2.78;91.91
72277;SHT30;61204;49.980;8.358;2022-12-15T10:01:19;-2.84;91.14
72277;SHT30;61204;49.980;8.358;2022-12-15T10:07:47;-2.74;91.52
72277;SHT30;61204;49.980;8.358;2022-12-15T10:10:24;-2.65;91.63
72277;SHT30;61204;49.980;8.358;2022-12-15T10:12:58;-2.64;91.44
72277;SHT30;61204;49.980;8.358;2022-12-15T10:18:27;-2.65;91.86
72277;SHT30;61204;49.980;8.358;2022-12-15T10:21:01;-2.71;92.07
72277;SHT30;61204;49.980;8.358;2022-12-15T10:23:26;-2.74;92.27
72277;SHT30;61204;49.980;8.358;2022-12-15T10:26:20;-2.65;92.03
72277;SHT30;61204;49.980;8.358;2022-12-15T10:31:59;-2.49;91.61
72277;SHT30;61204;49.980;8.358;2022-12-15T10:34:35;-2.57;92.21
72277;SHT30;61204;49.980;8.358;2022-12-15T10:37:05;-2.44;91.95
72277;SHT30;61204;49.980;8.358;2022-12-15T10:39:42;-2.51;91.63
72277;SHT30;61204;49.980;8.358;2022-12-15T10:44:52;-2.49;92.10
72277;SHT30;61204;49.980;8.358;2022-12-15T10:47:25;-2.39;91.33
72277;SHT30;61204;49.980;8.358;2022-12-15T10:49:55;-2.28;91.31
72277;SHT30;61204;49.980;8.358;2022-12-15T10:52:47;-2.09;91.02
72277;SHT30;61204;49.980;8.358;2022-12-15T10:55:35;-2.06;90.64
72277;SHT30;61204;49.980;8.358;2022-12-15T10:58:22;-1.95;89.84
72277;SHT30;61204;49.980;8.358;2022-12-15T11:01:06;-1.88;89.70
72277;SHT30;61204;49.980;8.358;2022-12-15T11:03:39;-1.85;89.49
72277;SHT30;61204;49.980;8.358;2022-12-15T11:06:15;-1.95;89.74
72277;SHT30;61204;49.980;8.358;2022-12-15T11:08:44;-1.87;89.85
72277;SHT30;61204;49.980;8.358;2022-12-15T11:11:34;-1.82;90.89
72277;SHT30;61204;49.980;8.358;2022-12-15T11:14:49;-1.75;89.78
72277;SHT30;61204;49.980;8.358;2022-12-15T11:17:22;-1.66;89.46
72277;SHT30;61204;49.980;8.358;2022-12-15T11:19:55;-1.56;88.65
72277;SHT30;61204;49.980;8.358;2022-12-15T11:22:40;-1.53;88.98
72277;SHT30;61204;49.980;8.358;2022-12-15T11:25:20;-1.43;89.14
72277;SHT30;61204;49.980;8.358;2022-12-15T11:27:56;-1.91;89.98
72277;SHT30;61204;49.980;8.358;2022-12-15T11:30:41;-1.92;89.69
72277;SHT30;61204;49.980;8.358;2022-12-15T11:33:11;-2.13;90.39
72277;SHT30;61204;49.980;8.358;2022-12-15T11:38:20;-1.92;90.50
72277;SHT30;61204;49.980;8.358;2022-12-15T11:40:57;-2.03;91.13
72277;SHT30;61204;49.980;8.358;2022-12-15T11:50:28;-2.30;91.85
72277;SHT30;61204;49.980;8.358;2022-12-15T11:53:17;-2.28;91.84
72277;SHT30;61204;49.980;8.358;2022-12-15T11:56:34;-2.07;91.20
72277;SHT30;61204;49.980;8.358;2022-12-15T12:05:58;-1.57;91.01
72277;SHT30;61204;49.980;8.358;2022-12-15T12:11:34;-1.43;89.12
72277;SHT30;61204;49.980;8.358;2022-12-15T12:20:29;-1.78;89.58
72277;SHT30;61204;49.980;8.358;2022-12-15T12:26:22;-1.35;88.65
72277;SHT30;61204;49.980;8.358;2022-12-15T12:33:02;-0.83;86.27
72277;SHT30;61204;49.980;8.358;2022-12-15T12:36:01;-1.53;87.37
72277;SHT30;61204;49.980;8.358;2022-12-15T12:38:38;-1.49;89.41
72277;SHT30;61204;49.980;8.358;2022-12-15T12:41:38;-1.87;90.29
72277;SHT30;61204;49.980;8.358;2022-12-15T12:44:33;-1.84;90.92
72277;SHT30;61204;49.980;8.358;2022-12-15T12:47:25;-2.02;90.95
72277;SHT30;61204;49.980;8.358;2022-12-15T12:50:16;-2.19;90.76
72277;SHT30;61204;49.980;8.358;2022-12-15T12:52:55;-2.26;91.54
72277;SHT30;61204;49.980;8.358;2022-12-15T12:55:36;-2.36;92.21
72277;SHT30;61204;49.980;8.358;2022-12-15T12:58:39;-2.34;92.10
72277;SHT30;61204;49.980;8.358;2022-12-15T13:03:41;-2.23;91.86
72277;SHT30;61204;49.980;8.358;2022-12-15T13:09:22;-2.40;91.24
72277;SHT30;61204;49.980;8.358;2022-12-15T13:14:24;-2.28;91.68
72277;SHT30;61204;49.980;8.358;2022-12-15T13:17:04;-2.09;91.58
72277;SHT30;61204;49.980;8.358;2022-12-15T13:22:35;-2.06;90.84
72277;SHT30;61204;49.980;8.358;2022-12-15T13:25:36;-2.16;91.30
72277;SHT30;61204;49.980;8.358;2022-12-15T13:39:30;-1.89;91.43
72277;SHT30;61204;49.980;8.358;2022-12-15T13:44:47;-1.75;91.05
72277;SHT30;61204;49.980;8.358;2022-12-15T13:47:25;-1.87;90.26
72277;SHT30;61204;49.980;8.358;2022-12-15T13:50:07;-2.10;90.44
72277;SHT30;61204;49.980;8.358;2022-12-15T13:52:47;-2.15;91.54
72277;SHT30;61204;49.980;8.358;2022-12-15T13:55:21;-2.07;91.79
72277;SHT30;61204;49.980;8.358;2022-12-15T13:58:21;-2.13;91.07
72277;SHT30;61204;49.980;8.358;2022-12-15T14:00:52;-2.39;91.64
72277;SHT30;61204;49.980;8.358;2022-12-15T14:03:20;-2.58;91.36
72277;SHT30;61204;49.980;8.358;2022-12-15T14:05:51;-2.64;91.75
72277;SHT30;61204;49.980;8.358;2022-12-15T14:08:22;-2.67;91.56
72277;SHT30;61204;49.980;8.358;2022-12-15T14:10:56;-2.72;91.86
72277;SHT30;61204;49.980;8.358;2022-12-15T14:13:33;-2.70;92.08
72277;SHT30;61204;49.980;8.358;2022-12-15T14:16:11;-2.72;92.02
72277;SHT30;61204;49.980;8.358;2022-12-15T14:18:42;-2.71;92.03
72277;SHT30;61204;49.980;8.358;2022-12-15T14:21:24;-2.75;92.10
72277;SHT30;61204;49.980;8.358;2022-12-15T14:23:51;-2.65;92.19
72277;SHT30;61204;49.980;8.358;2022-12-15T14:26:17;-2.68;92.03
72277;SHT30;61204;49.980;8.358;2022-12-15T14:28:46;-2.67;92.05
72277;SHT30;61204;49.980;8.358;2022-12-15T14:31:23;-2.70;92.78
72277;SHT30;61204;49.980;8.358;2022-12-15T14:34:18;-2.85;92.39
72277;SHT30;61204;49.980;8.358;2022-12-15T14:36:50;-2.91;92.87
72277;SHT30;61204;49.980;8.358;2022-12-15T14:39:53;-2.92;92.75
72277;SHT30;61204;49.980;8.358;2022-12-15T14:42:27;-2.92;92.75
72277;SHT30;61204;49.980;8.358;2022-12-15T14:44:55;-2.93;92.62
72277;SHT30;61204;49.980;8.358;2022-12-15T14:47:30;-2.98;92.76
72277;SHT30;61204;49.980;8.358;2022-12-15T14:50:01;-3.00;92.97
72277;SHT30;61204;49.980;8.358;2022-12-15T14:52:34;-2.99;93.06
72277;SHT30;61204;49.980;8.358;2022-12-15T14:55:33;-2.99;93.28
72277;SHT30;61204;49.980;8.358;2022-12-15T14:58:24;-3.02;93.11
72277;SHT30;61204;49.980;8.358;2022-12-15T15:00:57;-2.98;92.97
72277;SHT30;61204;49.980;8.358;2022-12-15T15:03:36;-3.00;92.59
72277;SHT30;61204;49.980;8.358;2022-12-15T15:08:48;-3.13;93.19
72277;SHT30;61204;49.980;8.358;2022-12-15T15:11:36;-3.20;93.88
72277;SHT30;61204;49.980;8.358;2022-12-15T15:14:13;-3.26;93.90
72277;SHT30;61204;49.980;8.358;2022-12-15T15:17:05;-3.32;94.11
72277;SHT30;61204;49.980;8.358;2022-12-15T15:19:59;-3.34;94.12
72277;SHT30;61204;49.980;8.358;2022-12-15T15:22:41;-3.43;94.40
72277;SHT30;61204;49.980;8.358;2022-12-15T15:25:37;-3.47;94.55
72277;SHT30;61204;49.980;8.358;2022-12-15T15:28:35;-3.50;94.92
72277;SHT30;61204;49.980;8.358;2022-12-15T15:31:27;-3.60;94.67
72277;SHT30;61204;49.980;8.358;2022-12-15T15:34:00;-3.62;94.79
72277;SHT30;61204;49.980;8.358;2022-12-15T15:36:33;-3.72;94.86
72277;SHT30;61204;49.980;8.358;2022-12-15T15:39:03;-3.79;94.78
72277;SHT30;61204;49.980;8.358;2022-12-15T15:41:36;-3.85;94.80
72277;SHT30;61204;49.980;8.358;2022-12-15T15:44:12;-3.92;94.96
72277;SHT30;61204;49.980;8.358;2022-12-15T15:46:47;-3.99;95.13
72277;SHT30;61204;49.980;8.358;2022-12-15T15:49:17;-4.00;95.19
72277;SHT30;61204;49.980;8.358;2022-12-15T15:51:45;-4.07;95.17
72277;SHT30;61204;49.980;8.358;2022-12-15T15:54:16;-4.11;95.39
72277;SHT30;61204;49.980;8.358;2022-12-15T15:56:46;-4.18;95.38
72277;SHT30;61204;49.980;8.358;2022-12-15T15:59:17;-4.18;95.40
72277;SHT30;61204;49.980;8.358;2022-12-15T16:01:52;-4.18;95.38
72277;SHT30;61204;49.980;8.358;2022-12-15T16:04:21;-4.26;95.27
72277;SHT30;61204;49.980;8.358;2022-12-15T16:06:48;-4.31;95.22
72277;SHT30;61204;49.980;8.358;2022-12-15T16:09:16;-4.27;95.40
72277;SHT30;61204;49.980;8.358;2022-12-15T16:11:43;-4.28;95.15
72277;SHT30;61204;49.980;8.358;2022-12-15T16:14:16;-4.31;95.18
72277;SHT30;61204;49.980;8.358;2022-12-15T16:16:43;-4.33;94.63
72277;SHT30;61204;49.980;8.358;2022-12-15T16:19:09;-4.37;94.80
72277;SHT30;61204;49.980;8.358;2022-12-15T16:21:37;-4.38;94.97
72277;SHT30;61204;49.980;8.358;2022-12-15T16:24:15;-4.41;94.81
72277;SHT30;61204;49.980;8.358;2022-12-15T16:26:48;-4.44;95.10
72277;SHT30;61204;49.980;8.358;2022-12-15T16:29:17;-4.50;94.98
72277;SHT30;61204;49.980;8.358;2022-12-15T16:31:45;-4.50;95.14
72277;SHT30;61204;49.980;8.358;2022-12-15T16:34:12;-4.51;95.14
72277;SHT30;61204;49.980;8.358;2022-12-15T16:36:41;-4.57;95.07
72277;SHT30;61204;49.980;8.358;2022-12-15T16:39:32;-4.65;94.94
72277;SHT30;61204;49.980;8.358;2022-12-15T16:41:59;-4.71;94.94
72277;SHT30;61204;49.980;8.358;2022-12-15T16:44:27;-4.73;94.98
72277;SHT30;61204;49.980;8.358;2022-12-15T16:46:53;-4.79;95.02
72277;SHT30;61204;49.980;8.358;2022-12-15T16:49:20;-4.81;95.35
72277;SHT30;61204;49.980;8.358;2022-12-15T16:51:48;-4.82;95.27
72277;SHT30;61204;49.980;8.358;2022-12-15T16:54:24;-4.81;95.60
72277;SHT30;61204;49.980;8.358;2022-12-15T16:56:53;-4.82;95.78
72277;SHT30;61204;49.980;8.358;2022-12-15T16:59:23;-4.82;95.61
72277;SHT30;61204;49.980;8.358;2022-12-15T17:01:55;-4.88;95.65
72277;SHT30;61204;49.980;8.358;2022-12-15T17:04:21;-4.88;95.91
72277;SHT30;61204;49.980;8.358;2022-12-15T17:06:48;-4.88;96.13
72277;SHT30;61204;49.980;8.358;2022-12-15T17:09:24;-4.90;95.97
72277;SHT30;61204;49.980;8.358;2022-12-15T17:11:50;-4.89;96.19
72277;SHT30;61204;49.980;8.358;2022-12-15T17:14:16;-4.88;96.31
72277;SHT30;61204;49.980;8.358;2022-12-15T17:16:42;-4.86;96.27
72277;SHT30;61204;49.980;8.358;2022-12-15T17:19:07;-4.90;96.26
72277;SHT30;61204;49.980;8.358;2022-12-15T17:21:53;-4.85;96.43
72277;SHT30;61204;49.980;8.358;2022-12-15T17:24:20;-4.89;96.44
72277;SHT30;61204;49.980;8.358;2022-12-15T17:26:46;-4.85;96.52
72277;SHT30;61204;49.980;8.358;2022-12-15T17:29:19;-4.86;96.38
72277;SHT30;61204;49.980;8.358;2022-12-15T17:31:47;-4.88;96.10
72277;SHT30;61204;49.980;8.358;2022-12-15T17:34:32;-4.83;96.35
72277;SHT30;61204;49.980;8.358;2022-12-15T17:37:02;-4.79;96.58
72277;SHT30;61204;49.980;8.358;2022-12-15T17:39:33;-4.78;96.56
72277;SHT30;61204;49.980;8.358;2022-12-15T17:41:59;-4.81;96.48